Date,TemperatureHighF,TemperatureAvgF,TemperatureLowF,DewpointHighF,DewpointAvgF,DewpointLowF,HumidityHigh,HumidityAvg,HumidityLow,PressureMaxIn,PressureMinIn,WindSpeedMaxMPH,WindSpeedAvgMPH,GustSpeedMaxMPH,PrecipitationSumIn
2013-1-1,49,36,29,16,11,5,47,35,23,30.29,30.19,10,2,15,0.00
2013-1-2,57,41,30,14,10,6,38,28,18,30.26,30.14,8,2,10,0.00
2013-1-3,57,39,26,16,8,1,43,28,18,30.32,30.17,5,2,9,0.00
2013-1-4,57,39,26,16,7,2,39,27,17,30.33,30.22,5,1,10,0.00
2013-1-5,56,40,27,15,7,2,39,26,17,30.36,30.14,8,2,10,0.00
2013-1-6,55,46,39,32,23,5,66,42,23,30.14,29.96,19,9,29,0.00
2013-1-7,65,47,34,28,17,11,68,32,16,30.15,30.02,18,5,24,0.00
2013-1-8,68,54,43,33,28,16,51,37,25,30.22,30.08,8,3,11,0.00
2013-1-9,66,52,36,33,28,24,64,42,29,30.22,29.83,30,8,39,0.00
2013-1-10,55,44,34,36,20,9,62,39,26,29.99,29.76,26,16,39,0.00
2013-1-11,48,38,31,17,14,7,52,38,19,30.07,29.96,16,6,20,0.00
2013-1-12,47,35,24,13,9,2,48,35,23,30.14,30.03,5,1,11,0.00
2013-1-13,45,29,17,8,4,-1,51,34,22,30.20,30.03,12,3,17,0.00
2013-1-14,42,29,18,2,-1,-4,37,27,17,30.38,30.20,11,3,15,0.00
2013-1-15,50,33,21,10,1,-6,32,26,17,30.53,30.37,6,1,9,0.00
2013-1-16,58,40,23,18,9,1,39,29,20,30.48,30.32,4,1,6,0.00
2013-1-17,63,42,27,18,11,6,45,29,15,30.39,30.25,8,1,12,0.00
2013-1-18,63,45,33,14,8,4,30,23,14,30.35,30.22,10,2,14,0.00
2013-1-19,65,44,31,15,7,3,30,22,13,30.37,30.23,5,1,9,0.00
2013-1-20,66,48,34,13,7,2,26,19,12,30.29,30.16,14,4,16,0.00
2013-1-21,69,52,42,15,8,4,21,17,11,30.27,30.14,12,5,15,0.00
2013-1-22,69,50,38,18,9,3,27,20,13,30.25,30.13,7,2,12,0.00
2013-1-23,60,49,39,29,12,6,45,23,18,30.22,30.10,4,0,6,0.00
2013-1-24,55,51,47,50,44,26,92,79,42,30.25,30.13,4,0,6,0.13
2013-1-25,58,52,48,50,48,45,92,85,66,30.25,30.02,3,0,4,0.13
2013-1-26,64,54,47,52,47,37,96,77,53,30.02,29.83,24,5,34,0.18
2013-1-27,55,49,42,40,30,23,72,50,30,29.98,29.81,30,16,35,0.00
2013-1-28,54,44,35,29,20,14,61,41,20,30.13,29.95,14,6,19,0.00
2013-1-29,57,44,38,32,28,23,59,53,37,30.24,30.09,14,6,21,0.00
2013-1-30,67,52,36,33,30,26,71,44,27,30.36,30.24,12,2,16,0.00
2013-1-31,70,57,39,34,31,28,68,39,26,30.31,30.16,11,3,14,0.00
2013-2-1,69,54,39,34,31,28,66,44,26,30.26,30.17,4,1,7,0.00
2013-2-2,67,56,44,33,31,29,58,39,25,30.34,30.21,10,2,16,0.00
2013-2-3,71,60,47,40,35,32,64,42,25,30.23,30.04,8,3,12,0.00
2013-2-4,74,58,47,33,26,22,52,31,17,30.14,30.01,9,3,11,0.00
2013-2-5,72,57,39,31,26,23,56,32,18,30.05,29.85,18,4,26,0.00
2013-2-6,72,62,49,29,20,12,44,22,11,30.06,29.92,11,4,14,0.00
2013-2-7,44,44,44,24,24,24,45,45,45,29.80,29.80,21,14,29,0.00
2013-2-8,53,45,39,28,24,20,59,44,27,29.82,29.71,26,14,37,0.00
2013-2-9,58,46,38,25,22,19,56,41,25,30.01,29.82,17,10,24,0.00
2013-2-10,59,45,30,23,20,14,60,37,22,30.04,29.89,13,4,17,0.00
2013-2-11,56,46,34,16,10,4,38,24,15,30.24,30.04,14,6,21,0.00
2013-2-12,62,44,28,16,9,3,35,24,16,30.34,30.22,6,1,10,0.00
2013-2-13,66,47,32,21,14,9,40,28,17,30.31,30.14,7,2,9,0.00
2013-2-14,70,56,40,27,23,14,41,29,19,30.28,30.14,13,3,19,0.00
2013-2-15,73,57,43,26,22,16,43,27,15,30.35,30.26,10,4,19,0.00
2013-2-16,71,54,37,22,16,13,37,23,13,30.34,30.00,11,3,13,0.00
2013-2-17,75,58,39,27,17,10,32,22,9,30.01,29.83,13,5,20,0.00
2013-2-18,69,61,51,28,25,21,40,26,18,30.03,29.82,29,12,38,0.00
2013-2-19,57,50,44,34,28,15,64,43,26,29.84,29.62,29,18,36,0.00
2013-2-20,62,49,36,31,23,18,80,38,19,29.90,29.61,16,10,26,0.00
2013-2-21,58,45,35,22,18,10,54,35,19,30.08,29.89,14,6,19,0.00
2013-2-22,64,49,31,27,20,15,59,34,16,30.19,30.08,13,5,19,0.00
2013-2-23,68,52,40,28,23,11,48,33,20,30.12,29.80,29,12,44,0.00
2013-2-24,62,47,37,12,8,4,31,21,12,30.23,30.11,18,8,25,0.00
2013-2-25,65,48,33,20,9,1,32,21,13,30.24,29.97,17,4,21,0.00
2013-2-26,65,51,38,19,13,4,43,23,14,30.22,30.02,11,4,14,0.00
2013-2-27,65,48,33,15,9,4,34,21,13,30.36,30.22,9,2,12,0.00
2013-2-28,72,50,35,16,10,5,29,20,11,30.44,30.33,5,1,9,0.00
2013-3-1,77,58,42,27,18,10,29,21,14,30.45,30.27,8,3,15,0.00
2013-3-2,80,61,43,30,23,17,37,24,14,30.33,30.06,20,7,24,0.00
2013-3-3,72,63,55,35,31,26,41,31,23,30.06,29.86,27,15,38,0.00
2013-3-4,76,61,49,34,30,25,51,33,16,30.07,29.89,13,4,18,0.00
2013-3-5,74,59,44,36,29,24,51,33,22,30.07,29.88,27,10,37,0.00
2013-3-6,66,54,46,35,32,27,65,43,27,29.97,29.87,37,21,46,0.00
2013-3-7,60,50,44,36,32,26,66,50,27,29.93,29.80,32,19,42,0.00
2013-3-8,46,40,35,39,34,28,91,78,57,29.90,29.72,17,5,24,0.45
2013-3-9,66,52,35,35,31,18,91,50,26,30.24,29.90,12,4,18,0.04
2013-3-10,74,56,42,23,18,13,35,23,12,30.33,30.19,12,4,14,0.00
2013-3-11,78,57,40,26,22,16,53,29,12,30.25,30.06,7,2,11,0.00
2013-3-12,82,61,45,28,24,19,42,26,12,30.20,30.07,7,2,11,0.00
2013-3-13,87,66,48,33,27,23,42,25,14,30.26,30.11,9,2,13,0.00
2013-3-14,90,70,51,38,30,26,42,25,13,30.21,30.05,14,4,18,0.00
2013-3-15,91,76,66,43,37,25,41,26,10,30.07,29.85,27,13,36,0.00
2013-3-16,88,73,63,39,34,27,38,26,12,29.94,29.80,26,10,36,0.00
2013-3-17,87,69,59,33,27,23,30,22,11,29.99,29.83,28,12,36,0.00
2013-3-18,79,66,55,32,26,23,30,23,13,30.05,29.88,20,10,33,0.00
2013-3-19,83,70,59,35,30,25,29,23,15,30.05,29.91,24,10,30,0.00
2013-3-20,77,68,61,38,34,27,38,29,19,30.01,29.84,29,20,40,0.00
2013-3-21,82,66,55,37,31,22,44,29,13,29.92,29.71,23,11,33,0.00
2013-3-22,62,57,52,33,27,22,40,31,25,29.89,29.78,16,7,21,0.00
2013-3-23,74,60,48,26,18,11,31,21,10,30.08,29.88,15,8,22,0.00
2013-3-24,78,57,44,30,18,13,31,22,10,30.07,29.91,15,4,18,0.00
2013-3-25,80,65,51,31,26,16,40,25,14,29.99,29.84,21,6,27,0.00
2013-3-26,81,67,60,35,26,10,32,22,12,29.89,29.76,27,15,37,0.00
2013-3-27,81,67,58,36,33,30,41,29,17,29.91,29.80,22,11,33,0.00
2013-3-28,81,67,58,41,35,29,44,32,18,30.02,29.91,23,12,29,0.00
2013-3-29,83,68,54,41,33,25,44,29,12,30.12,30.00,23,8,29,0.00
2013-3-30,84,71,61,40,33,-100,37,26,16,30.09,29.95,27,12,37,0.00
2013-3-31,77,64,56,46,40,34,64,43,23,30.04,29.92,30,18,40,0.00
2013-4-1,77,62,52,39,33,29,50,36,19,30.03,29.92,28,13,35,0.00
2013-4-2,82,66,53,40,35,30,50,34,16,30.08,29.94,15,6,19,0.00
2013-4-3,87,70,55,39,35,27,50,30,16,30.11,29.97,14,6,18,0.00
2013-4-4,82,72,63,44,38,33,38,29,22,30.03,29.92,24,15,33,0.00
2013-4-5,83,68,58,40,36,31,46,33,18,29.99,29.86,19,10,29,0.00
2013-4-6,82,67,56,41,36,32,43,33,18,30.02,29.85,20,11,30,0.00
2013-4-7,84,68,59,39,36,33,41,32,18,29.94,29.68,30,11,42,0.00
2013-4-8,69,58,46,38,28,15,68,34,19,29.82,29.52,33,18,44,0.00
2013-4-9,74,58,49,20,16,11,31,20,9,30.08,29.82,24,15,33,0.00
2013-4-10,86,65,52,30,20,15,24,18,11,30.16,29.97,18,7,27,0.00
2013-4-11,86,74,61,39,32,27,35,22,13,29.87,29.72,26,9,36,0.00
2013-4-12,78,65,59,39,34,31,38,32,19,29.89,29.77,14,5,19,0.00
2013-4-13,90,77,70,38,36,34,29,23,16,29.64,29.60,28,21,40,0.00
2013-4-14,90,73,65,41,36,29,33,26,16,29.70,29.47,36,16,50,0.00
2013-4-15,75,64,54,35,29,22,38,27,16,29.65,29.52,37,28,53,0.00
2013-4-16,71,54,43,28,22,16,41,29,15,30.00,29.65,25,13,41,0.00
2013-4-17,70,54,44,17,14,7,32,21,12,30.20,29.98,19,9,28,0.00
2013-4-18,74,55,41,17,12,7,27,18,11,30.32,30.18,13,3,19,0.00
2013-4-19,84,62,46,28,17,7,24,18,10,30.25,29.94,17,5,24,0.00
2013-4-20,89,72,56,37,30,24,31,23,11,30.07,29.93,16,6,22,0.00
2013-4-21,93,75,61,37,34,29,34,24,12,30.03,29.88,22,9,32,0.00
2013-4-22,94,76,60,38,34,31,36,23,12,29.96,29.72,20,9,30,0.00
2013-4-23,83,72,63,36,24,14,26,18,11,30.04,29.78,19,10,29,0.00
2013-4-24,85,72,56,29,20,12,31,14,9,29.96,29.82,20,7,25,0.00
2013-4-25,89,71,54,35,29,18,35,22,11,29.99,29.83,18,6,27,0.00
2013-4-26,93,79,65,38,31,21,35,20,9,30.14,29.99,15,6,23,0.00
2013-4-27,98,79,66,38,33,27,32,21,9,30.17,29.98,13,7,20,0.00
2013-4-28,100,87,73,40,35,27,27,17,9,30.01,29.83,18,8,37,0.00
2013-4-29,99,82,70,42,39,30,34,24,9,29.88,29.67,18,9,27,0.00
2013-4-30,96,83,74,44,42,37,32,24,13,29.75,29.60,29,16,35,0.00
2013-5-1,85,74,62,42,17,2,40,14,5,30.18,29.75,20,9,30,0.00
2013-5-2,85,72,57,13,8,1,12,8,6,30.33,30.15,15,5,27,0.00
2013-5-3,93,70,52,28,12,2,18,11,6,30.15,29.80,16,6,23,0.00
2013-5-4,94,77,67,37,30,22,29,19,9,29.80,29.56,34,14,46,0.00
2013-5-5,67,62,54,41,36,27,60,40,24,29.86,29.66,33,18,43,0.00
2013-5-6,70,59,50,49,41,36,75,53,31,29.93,29.85,31,17,39,0.00
2013-5-7,76,62,52,47,39,37,62,45,26,29.95,29.87,25,11,33,0.01
2013-5-8,80,66,53,44,39,36,57,39,21,30.03,29.93,21,7,27,0.01
2013-5-9,83,67,58,53,44,40,73,46,23,30.08,29.98,31,7,39,0.01
2013-5-10,93,74,60,47,40,-100,55,35,15,30.11,30.00,12,5,20,0.01
2013-5-11,99,81,69,41,37,-100,30,22,12,30.17,30.05,11,5,20,0.00
2013-5-12,102,86,75,44,41,36,31,22,12,30.15,29.97,12,6,17,0.00
2013-5-13,105,88,76,48,42,34,32,21,10,30.07,29.92,17,10,29,0.00
2013-5-14,96,84,75,42,34,20,30,18,7,29.96,29.81,35,15,46,0.00
2013-5-15,101,83,70,44,39,33,36,22,12,29.93,29.77,18,10,30,0.00
2013-5-16,93,73,66,40,20,-100,37,22,13,29.83,29.76,29,16,40,0.00
2013-5-17,85,72,63,43,37,-100,44,32,21,29.85,29.75,26,14,40,0.00
2013-5-18,91,75,62,38,35,33,36,25,14,29.98,29.85,16,9,29,0.00
2013-5-19,93,77,64,37,34,30,30,22,13,30.02,29.86,16,8,23,0.00
2013-5-20,92,77,63,37,29,24,27,18,10,30.09,29.93,12,4,21,0.00
2013-5-21,96,79,71,34,30,24,22,17,10,29.95,29.72,23,14,36,0.00
2013-5-22,86,74,61,37,29,20,28,20,11,29.75,29.60,34,23,46,0.00
2013-5-23,84,68,57,28,21,9,30,18,6,29.83,29.67,33,19,43,0.00
2013-5-24,89,69,55,39,28,19,32,23,8,29.93,29.80,25,9,33,0.00
2013-5-25,91,73,61,36,32,26,34,23,11,29.90,29.80,27,13,38,0.00
2013-5-26,92,74,64,40,34,26,34,23,14,29.91,29.82,26,14,37,0.00
2013-5-27,92,76,63,42,37,29,35,26,15,29.91,29.75,33,11,40,0.00
2013-5-28,93,77,66,45,42,39,39,30,19,29.77,29.66,25,14,35,0.00
2013-5-29,94,79,66,48,44,41,42,31,18,29.80,29.64,26,14,33,0.00
2013-5-30,99,81,68,47,42,34,43,28,11,29.85,29.69,24,10,33,0.00
2013-5-31,101,84,71,42,36,28,30,20,10,29.96,29.80,24,7,33,0.00
2013-6-1,106,87,71,38,31,25,22,15,7,29.94,29.79,11,6,17,0.00
2013-6-2,104,88,73,44,37,32,25,17,10,29.81,29.64,30,12,37,0.00
2013-6-3,102,85,73,45,42,34,31,23,12,29.80,29.69,26,11,33,0.00
2013-6-4,104,86,70,48,45,35,38,26,11,29.87,29.76,23,10,30,0.00
2013-6-5,108,90,75,51,45,36,38,24,9,29.95,29.79,18,8,25,0.00
2013-6-6,111,93,79,48,44,36,32,21,9,29.89,29.77,15,7,26,0.00
2013-6-7,112,94,79,49,43,32,32,20,8,29.87,29.73,22,8,26,0.00
2013-6-8,115,99,83,49,40,33,24,14,7,29.80,29.69,29,10,36,0.00
2013-6-9,106,92,79,52,37,18,31,17,5,29.85,29.77,34,14,40,0.00
2013-6-10,94,82,72,44,32,19,30,17,9,29.88,29.77,27,17,37,0.00
2013-6-11,105,88,75,45,40,31,28,20,9,29.96,29.81,23,10,37,0.00
2013-6-12,101,85,77,46,41,36,29,22,11,29.92,29.83,27,14,36,0.00
2013-6-13,99,81,73,42,36,22,30,22,7,29.91,29.79,26,18,34,0.00
2013-6-14,99,76,66,37,29,-100,26,19,6,29.95,29.75,21,9,32,0.00
2013-6-15,98,78,69,37,34,27,29,21,8,29.89,29.80,24,12,33,0.00
2013-6-16,98,77,66,37,33,30,27,20,10,29.98,29.86,22,8,29,0.00
2013-6-17,101,81,71,42,38,33,29,22,11,29.97,29.82,21,8,29,0.00
2013-6-18,98,79,72,42,36,27,30,22,8,29.84,29.73,31,15,38,0.00
2013-6-19,95,75,66,40,34,25,33,24,11,29.81,29.72,29,17,40,0.00
2013-6-20,85,72,65,35,32,28,31,24,13,29.87,29.74,25,11,36,0.00
2013-6-21,86,86,86,38,38,38,18,18,18,29.72,29.72,16,16,32,0.00
2013-6-22,88,82,72,37,35,32,25,18,14,29.91,29.76,18,9,26,0.00
2013-6-23,96,79,70,43,40,36,31,25,14,29.77,29.63,31,15,42,0.00
2013-6-24,87,77,69,51,45,37,42,32,26,29.82,29.65,31,20,40,0.00
2013-6-25,98,83,70,53,51,48,49,34,21,29.91,29.81,27,13,35,0.00
2013-6-26,106,88,74,55,52,48,46,32,16,29.98,29.87,23,10,32,0.00
2013-6-27,108,91,78,58,54,47,48,31,14,30.07,29.96,22,10,27,0.00
2013-6-28,110,92,82,57,54,48,39,29,14,30.04,29.86,15,9,23,0.00
2013-6-29,114,95,82,55,52,43,36,25,10,29.93,29.80,19,8,29,0.00
2013-6-30,115,95,86,52,49,41,29,22,9,29.90,29.82,18,10,23,0.00
2013-7-1,106,94,88,53,49,43,27,21,15,29.94,29.80,26,13,33,0.00
2013-7-2,110,93,81,54,50,47,32,24,14,29.99,29.82,22,7,45,0.00
2013-7-3,109,94,87,51,50,48,27,22,15,29.90,29.75,17,11,25,0.00
2013-7-4,112,96,88,56,51,46,29,23,13,29.83,29.70,14,6,24,0.00
2013-7-5,109,94,86,57,54,42,35,27,13,29.79,29.68,19,10,27,0.00
2013-7-6,101,87,83,49,43,39,25,21,14,29.79,29.70,24,13,32,0.00
2013-7-7,103,89,83,44,42,34,23,20,12,29.87,29.78,18,11,25,0.00
2013-7-8,94,85,82,36,34,32,17,16,13,29.99,29.88,17,12,22,0.00
2013-7-9,95,91,83,39,34,30,16,14,10,30.05,29.99,14,8,19,0.00
2013-7-10,100,87,88,51,38,-100,26,19,16,30.00,29.87,18,10,23,0.00
2013-7-11,91,85,80,62,52,46,54,32,25,29.99,29.84,23,9,29,0.00
2013-7-12,100,86,77,48,45,27,33,25,12,29.95,29.80,19,8,26,0.00
2013-7-13,91,85,79,42,39,31,21,20,16,29.96,29.88,19,10,26,0.00
2013-7-14,104,87,81,46,40,38,22,19,14,29.95,29.81,17,10,24,0.00
2013-7-15,104,88,81,48,40,34,20,18,14,29.86,29.75,30,16,37,0.00
2013-7-16,98,80,74,38,35,32,23,20,10,29.94,29.83,20,13,25,0.00
2013-7-17,91,79,70,40,37,34,29,22,16,30.06,29.92,21,8,27,0.00
2013-7-18,101,84,74,44,40,34,29,22,10,30.04,29.88,14,7,19,0.00
2013-7-19,101,85,76,45,43,40,30,23,14,29.92,29.82,15,7,21,0.00
2013-7-20,108,88,78,54,44,-100,27,22,15,29.89,29.74,26,13,34,0.00
2013-7-21,101,91,80,66,56,47,55,32,24,29.98,29.82,19,7,27,0.00
2013-7-22,98,82,72,70,62,51,82,54,30,30.00,29.91,22,6,32,0.75
2013-7-23,98,83,70,69,62,57,84,53,29,30.05,29.88,14,5,20,0.10
2013-7-24,105,91,79,60,56,49,47,33,19,29.98,29.83,17,8,25,0.01
2013-7-25,107,90,82,55,52,50,36,28,16,29.99,29.88,17,10,28,0.00
2013-7-26,97,89,84,60,56,51,43,32,26,30.08,29.99,20,10,23,0.00
2013-7-27,99,88,75,67,61,58,69,43,29,30.06,29.86,12,4,18,0.17
2013-7-28,102,87,75,64,58,46,62,40,18,29.91,29.78,20,5,27,0.15
2013-7-29,101,84,69,54,47,36,54,29,11,29.97,29.86,23,7,30,0.00
2013-7-30,101,86,75,50,48,45,37,27,17,30.09,29.96,29,10,35,0.00
2013-7-31,101,86,72,48,45,36,37,25,11,30.08,29.95,20,8,28,0.00
2013-8-1,94,80,75,45,41,38,31,25,17,29.96,29.78,24,16,38,0.00
2013-8-2,92,77,70,43,39,31,35,26,16,29.94,29.85,22,8,31,0.00
2013-8-3,97,79,71,36,33,30,25,20,10,29.98,29.90,24,10,31,0.00
2013-8-4,101,83,73,39,35,21,27,19,6,29.98,29.91,19,8,27,0.00
2013-8-5,87,81,77,37,35,33,21,19,16,30.00,29.91,19,13,25,0.00
2013-8-6,103,82,75,42,39,35,28,22,10,29.97,29.90,25,17,32,0.00
2013-8-7,97,82,74,47,39,25,34,23,8,29.96,29.89,25,18,35,0.00
2013-8-8,93,78,71,43,39,33,32,26,12,29.95,29.85,21,14,31,0.00
2013-8-9,95,79,67,43,38,21,38,25,7,29.93,29.85,20,10,27,0.00
2013-8-10,96,81,70,46,42,33,37,26,11,30.01,29.89,17,9,24,0.00
2013-8-11,95,80,70,47,42,32,37,27,11,30.00,29.86,16,8,22,0.00
2013-8-12,100,82,72,45,41,34,35,25,10,29.98,29.86,17,10,25,0.00
2013-8-13,101,80,74,43,36,-100,31,23,11,29.99,29.91,17,9,25,0.00
2013-8-14,102,81,78,42,32,-100,26,19,10,29.98,29.92,14,8,20,0.00
2013-8-15,104,65,74,47,4,-100,25,16,14,29.98,29.87,16,8,23,0.00
2013-8-16,105,85,77,52,40,-100,29,22,14,29.99,29.89,20,9,29,0.00
2013-8-17,105,87,80,50,43,-100,31,24,9,29.98,29.80,18,12,26,0.00
2013-8-18,103,84,73,60,48,41,43,29,18,30.03,29.82,34,7,55,0.04
2013-8-19,98,77,67,68,49,-100,87,51,29,30.06,29.89,12,4,22,0.74
2013-8-20,102,84,73,59,50,-100,59,36,14,29.95,29.85,24,6,30,0.12
2013-8-21,101,88,78,48,43,38,30,22,15,29.97,29.86,22,9,29,0.00
2013-8-22,100,88,76,49,45,37,34,23,14,29.98,29.82,22,11,35,0.00
2013-8-23,93,82,74,46,43,31,35,26,12,29.92,29.79,21,11,26,0.00
2013-8-24,94,78,72,45,40,-100,36,27,13,29.90,29.82,19,9,25,0.00
2013-8-25,96,81,67,61,44,31,58,31,12,29.99,29.85,24,10,33,0.00
2013-8-26,90,79,66,62,59,55,74,52,36,30.05,29.93,14,4,20,0.00
2013-8-27,89,77,70,62,60,59,70,58,39,29.98,29.92,6,2,12,0.00
2013-8-28,100,94,84,60,56,50,36,29,25,29.95,29.85,17,9,24,0.00
2013-8-29,101,85,76,55,51,49,40,31,21,30.02,29.95,12,6,22,0.00
2013-8-30,97,89,77,64,60,53,46,39,32,30.06,29.94,20,11,29,0.00
2013-8-31,101,88,78,60,55,-100,47,35,24,30.02,29.85,28,10,34,0.00
2013-9-1,98,86,78,57,54,53,45,36,24,29.97,29.90,23,10,30,0.00
2013-9-2,101,94,86,57,53,51,35,26,20,29.96,29.83,21,15,31,0.00
2013-9-3,100,90,79,58,55,52,46,31,22,29.97,29.86,19,12,26,0.00
2013-9-4,103,88,74,56,53,47,47,32,16,30.02,29.88,21,9,27,0.00
2013-9-5,103,90,76,55,51,48,40,28,17,29.99,29.87,16,8,24,0.00
2013-9-6,103,88,81,51,48,45,33,26,16,29.98,29.82,17,10,30,0.00
2013-9-7,100,84,76,56,43,-100,34,25,12,29.97,29.83,18,10,24,0.00
2013-9-8,100,84,70,59,52,38,53,35,20,29.94,29.79,22,6,30,0.01
2013-9-9,97,84,69,59,53,45,65,39,20,29.90,29.72,12,4,19,0.01
2013-9-10,95,83,71,50,46,41,41,28,21,29.91,29.75,19,8,25,0.00
2013-9-11,96,84,71,47,45,41,36,26,19,29.98,29.86,15,6,21,0.00
2013-9-12,97,84,72,49,46,42,36,27,17,29.98,29.82,15,8,26,0.00
2013-9-13,98,85,68,51,48,45,45,29,19,29.89,29.71,13,5,20,0.00
2013-9-14,102,85,72,52,45,-100,42,27,14,29.83,29.69,15,7,21,0.00
2013-9-15,101,84,73,49,46,41,40,27,15,29.83,29.76,15,9,20,0.00
2013-9-16,99,83,72,47,43,39,37,25,14,29.91,29.77,16,8,22,0.00
2013-9-17,95,80,72,44,38,24,34,24,8,29.80,29.66,27,17,38,0.00
2013-9-18,79,72,65,46,41,32,41,34,19,29.83,29.72,22,10,35,0.00
2013-9-19,80,72,66,38,30,27,26,22,16,29.92,29.80,7,3,11,0.00
2013-9-20,95,75,61,41,32,25,29,22,11,29.86,29.73,26,8,35,0.00
2013-9-21,87,73,63,45,40,-100,44,31,17,29.79,29.68,23,16,37,0.00
2013-9-22,80,67,57,41,35,27,44,33,16,29.90,29.72,21,11,30,0.00
2013-9-23,88,71,53,39,36,34,51,30,16,30.01,29.90,12,5,15,0.00
2013-9-24,94,76,58,39,32,21,39,23,7,29.96,29.77,28,13,35,0.00
2013-9-25,81,71,60,44,36,23,47,30,13,29.77,29.53,32,21,44,0.00
2013-9-26,74,62,53,35,29,25,40,29,17,29.91,29.61,25,9,34,0.00
2013-9-27,77,64,52,29,26,21,36,24,15,30.09,29.92,14,5,22,0.00
2013-9-28,74,59,49,27,20,-100,33,23,15,30.14,30.05,11,3,13,0.00
2013-9-29,80,68,56,33,28,22,31,22,16,30.11,29.93,21,7,27,0.00
2013-9-30,90,75,63,39,32,28,28,22,13,30.00,29.83,17,7,25,0.00
2013-10-1,87,78,70,47,44,41,44,31,21,29.85,29.79,22,18,30,0.00
2013-10-2,90,75,64,48,43,36,51,34,16,29.91,29.75,26,15,35,0.00
2013-10-3,84,69,63,41,31,19,39,25,12,29.98,29.76,18,11,27,0.00
2013-10-4,68,59,51,20,18,16,25,20,15,30.23,30.00,13,5,20,0.00
2013-10-5,72,57,48,24,18,15,27,21,15,30.35,30.22,6,2,12,0.00
2013-10-6,68,55,46,19,16,13,27,21,14,30.26,30.07,6,1,9,0.00
2013-10-7,66,55,51,17,13,11,23,19,15,30.06,30.01,4,1,6,0.00
2013-10-8,67,67,66,25,25,24,21,20,20,29.83,29.81,22,17,29,0.00
2013-10-9,63,57,51,41,37,35,58,49,36,29.72,29.58,36,20,46,0.00
2013-10-10,74,59,46,37,35,33,63,43,24,29.95,29.72,13,7,20,0.00
2013-10-11,78,63,48,38,34,29,56,36,21,30.05,29.93,12,5,17,0.00
2013-10-12,79,62,47,36,29,-100,57,33,12,29.99,29.80,23,7,32,0.00
2013-10-13,76,66,55,37,33,26,42,30,20,30.05,29.81,25,10,35,0.00
2013-10-14,75,61,50,33,30,24,46,31,21,30.16,30.03,10,2,14,0.00
2013-10-15,76,62,46,31,27,22,39,27,16,30.11,30.01,10,3,14,0.00
2013-10-16,73,61,48,26,22,18,33,23,15,30.22,30.07,5,2,10,0.00
2013-10-17,73,56,46,28,20,15,33,25,15,30.12,29.96,6,2,9,0.00
2013-10-18,77,61,55,28,22,17,30,23,14,30.14,30.01,6,2,9,0.00
2013-10-19,77,54,47,23,14,-100,29,22,11,30.13,30.02,10,2,13,0.00
2013-10-20,72,61,55,25,18,16,23,20,14,30.04,29.91,9,3,11,0.00
2013-10-21,69,60,56,25,20,18,24,21,16,30.04,29.94,7,1,11,0.00
2013-10-22,74,61,51,27,21,18,27,22,17,30.11,29.96,5,1,7,0.00
2013-10-23,75,60,53,27,22,20,30,23,16,30.01,29.90,4,1,10,0.00
2013-10-24,84,64,54,28,23,20,29,22,12,30.01,29.93,10,3,13,0.00
2013-10-25,77,66,58,28,25,22,28,21,16,30.15,30.07,4,2,9,0.00
2013-10-26,79,62,52,28,21,-100,30,22,15,30.19,30.05,5,2,11,0.00
2013-10-27,82,62,53,31,24,20,32,23,13,30.06,29.70,21,3,30,0.00
2013-10-28,60,53,48,37,31,-100,65,47,34,29.84,29.66,30,16,40,0.00
2013-10-29,64,52,44,37,34,33,70,52,32,29.96,29.82,22,9,31,0.00
2013-10-30,68,54,45,33,28,23,55,40,22,30.10,29.96,9,2,14,0.00
2013-10-31,71,54,41,29,25,19,49,34,19,30.19,30.07,6,2,11,0.00
2013-11-1,75,58,41,31,24,17,42,28,20,30.25,30.10,6,1,12,0.00
2013-11-2,76,61,42,32,25,-100,48,28,17,30.11,29.79,22,7,27,0.00
2013-11-3,75,61,44,33,28,21,43,29,19,29.87,29.77,18,4,24,0.00
2013-11-4,69,58,48,34,27,18,50,32,20,30.02,29.76,14,4,18,0.00
2013-11-5,64,51,41,19,15,9,34,24,14,30.27,30.02,13,3,18,0.00
2013-11-6,62,49,37,17,12,8,31,23,16,30.38,30.27,5,1,7,0.00
2013-11-7,70,54,40,23,17,11,32,23,16,30.28,30.09,8,1,10,0.00
2013-11-8,72,54,42,24,19,14,34,26,16,30.10,29.95,4,1,10,0.00
2013-11-9,71,52,42,24,16,-100,34,25,16,30.12,30.01,4,1,10,0.00
2013-11-10,72,54,43,22,18,14,31,24,15,30.20,30.11,5,1,7,0.00
2013-11-11,72,55,44,22,17,13,28,23,15,30.24,30.15,7,2,11,0.00
2013-11-12,67,58,51,23,17,15,24,21,17,30.29,30.21,5,1,7,0.00
2013-11-13,67,58,49,23,19,16,27,22,17,30.22,30.06,7,2,12,0.00
2013-11-14,79,68,57,31,28,26,31,23,16,30.10,29.69,23,9,31,0.00
2013-11-15,72,64,52,36,30,24,55,30,20,29.68,29.61,20,10,29,0.00
2013-11-16,67,54,48,37,32,-100,61,45,32,29.86,29.65,22,9,29,0.00
2013-11-17,66,52,38,37,32,27,67,46,29,30.11,29.87,12,1,16,0.00
2013-11-18,68,55,42,39,35,29,64,48,34,30.16,29.98,22,6,28,0.00
2013-11-19,65,55,45,39,36,34,67,49,37,30.00,29.90,17,3,21,0.00
2013-11-20,69,59,49,43,38,34,64,47,34,29.89,29.74,26,7,33,0.00
2013-11-21,63,52,44,44,40,32,90,65,45,29.99,29.79,21,10,28,0.49
2013-11-22,44,41,39,36,35,32,85,78,65,30.08,29.99,24,13,30,0.54
2013-11-23,50,45,41,40,35,-100,88,72,60,30.14,30.03,9,2,14,0.05
2013-11-24,58,47,38,40,37,32,90,71,40,30.23,30.13,4,1,6,0.03
2013-11-25,65,49,35,41,36,31,88,64,33,30.30,30.21,3,1,7,0.00
2013-11-26,62,50,40,41,37,34,83,62,36,30.32,30.18,4,1,6,0.00
2013-11-27,64,51,42,39,37,35,78,61,36,30.18,29.97,4,1,8,0.00
2013-12-14,61,47,38,23,18,-100,46,34,21,30.46,30.32,8,2,12,0.00
2013-12-15,62,48,32,24,20,17,57,35,20,30.45,30.30,3,1,7,0.00
2013-12-16,67,49,38,26,22,19,47,34,20,30.35,30.24,4,0,6,0.00
2013-12-17,67,50,40,27,22,19,45,34,21,30.32,30.14,4,1,9,0.00
2013-12-18,63,52,43,30,24,21,46,34,23,30.14,29.66,24,4,33,0.00
2013-12-19,57,49,44,35,31,21,62,49,32,29.83,29.59,27,17,36,0.00
2013-12-20,58,45,37,21,17,13,43,33,22,29.94,29.81,18,4,28,0.00
2013-12-21,63,44,32,27,20,-100,59,41,25,30.09,29.85,9,2,11,0.00
2013-12-22,63,46,34,30,26,23,65,47,27,30.34,30.09,5,1,7,0.00
2013-12-23,63,48,36,32,28,24,62,46,29,30.44,30.33,5,1,8,0.00
2013-12-24,66,49,35,33,29,26,71,47,27,30.35,30.24,5,1,6,0.00
2013-12-25,65,52,43,29,24,19,51,35,20,30.42,30.30,10,4,12,0.00